createdAt,value
2018-09-16T00:02:05.402Z,5.13
2018-09-16T00:04:33.917Z,4.80
2018-09-16T00:07:02.536Z,8.43
2018-09-16T00:09:30.964Z,3.97
2018-09-16T00:11:59.227Z,4.67
2018-09-16T00:14:27.582Z,4.30
2018-09-16T00:16:55.900Z,3.60
2018-09-16T00:19:24.294Z,4.63
2018-09-16T00:21:52.658Z,3.27
2018-09-16T00:24:21.000Z,4.63
2018-09-16T00:26:49.329Z,4.10
2018-09-16T00:29:17.605Z,4.13
2018-09-16T00:31:46.058Z,4.07
2018-09-16T00:34:14.362Z,4.23
2018-09-16T00:36:42.754Z,3.30
2018-09-16T00:39:11.167Z,4.13
2018-09-16T00:41:40.129Z,5.23
2018-09-16T00:44:08.405Z,5.60
2018-09-16T00:46:36.820Z,3.60
2018-09-16T00:49:05.458Z,4.90
2018-09-16T00:51:33.754Z,4.57
2018-09-16T00:54:02.041Z,5.40
2018-09-16T00:56:30.311Z,4.83
2018-09-16T00:58:58.640Z,5.70
2018-09-16T01:01:26.962Z,5.50
2018-09-16T01:03:55.317Z,4.97
2018-09-16T01:06:29.004Z,4.27
2018-09-16T01:08:57.444Z,4.27
2018-09-16T01:11:25.887Z,4.93
2018-09-16T01:13:54.210Z,3.83
2018-09-16T01:16:22.486Z,4.00
2018-09-16T01:18:50.926Z,4.33
2018-09-16T01:21:19.232Z,5.27
2018-09-16T01:23:47.671Z,3.60
2018-09-16T01:26:15.906Z,3.87
2018-09-16T01:28:44.327Z,3.60
2018-09-16T01:31:12.752Z,2.93
2018-09-16T01:33:42.324Z,3.47
2018-09-16T01:36:10.711Z,3.20
2018-09-16T01:38:44.461Z,3.93
2018-09-16T01:41:12.796Z,4.27
2018-09-16T01:43:42.039Z,3.23
2018-09-16T01:46:10.468Z,3.77
2018-09-16T01:48:38.683Z,4.27
2018-09-16T01:51:07.201Z,3.40
2018-09-16T01:53:35.445Z,3.13
2018-09-16T01:56:03.685Z,2.97
2018-09-16T01:58:31.938Z,4.00
2018-09-16T02:01:00.141Z,3.97
2018-09-16T02:03:28.431Z,3.97
2018-09-16T02:05:56.656Z,3.33
2018-09-16T02:08:25.763Z,4.43
2018-09-16T02:10:54.299Z,3.17
2018-09-16T02:13:23.637Z,3.23
2018-09-16T02:15:51.936Z,3.60
2018-09-16T02:18:20.154Z,4.97
2018-09-16T02:20:48.416Z,3.37
2018-09-16T02:23:16.699Z,3.33
2018-09-16T02:25:45.560Z,3.13
2018-09-16T02:28:14.018Z,2.90
2018-09-16T02:30:42.657Z,3.40
2018-09-16T02:33:11.287Z,3.50
2018-09-16T02:35:39.669Z,3.47
2018-09-16T02:38:08.229Z,3.60
2018-09-16T02:40:36.519Z,4.87
2018-09-16T02:43:04.769Z,3.70
2018-09-16T02:45:33.000Z,3.73
2018-09-16T02:48:01.421Z,3.30
2018-09-16T02:50:30.191Z,4.07
2018-09-16T02:52:58.668Z,3.67
2018-09-16T02:55:26.968Z,3.63
2018-09-16T02:57:55.233Z,3.47
2018-09-16T03:00:23.685Z,3.50
2018-09-16T03:02:51.951Z,3.40
2018-09-16T03:05:25.652Z,4.97
2018-09-16T03:07:53.968Z,4.23
2018-09-16T03:10:22.258Z,3.57
2018-09-16T03:12:50.614Z,3.57
2018-09-16T03:15:19.139Z,3.83
2018-09-16T03:17:47.378Z,4.07
2018-09-16T03:20:15.673Z,4.00
2018-09-16T03:22:43.982Z,4.53
2018-09-16T03:25:12.229Z,3.53
2018-09-16T03:27:40.623Z,3.60
2018-09-16T03:30:08.883Z,4.20
2018-09-16T03:32:37.318Z,3.70
2018-09-16T03:35:06.046Z,3.60
2018-09-16T03:37:35.018Z,4.37
2018-09-16T03:40:03.702Z,5.00
2018-09-16T03:42:32.114Z,5.33
2018-09-16T03:45:00.454Z,4.30
2018-09-16T03:47:29.924Z,5.20
2018-09-16T03:49:58.243Z,4.43
2018-09-16T03:52:26.508Z,5.47
2018-09-16T03:54:54.780Z,4.17
2018-09-16T03:57:23.058Z,3.73
2018-09-16T03:59:51.357Z,4.33
2018-09-16T04:02:19.662Z,4.30
2018-09-16T04:04:47.884Z,3.83
2018-09-16T04:07:16.573Z,4.07
2018-09-16T04:09:44.800Z,4.83
2018-09-16T04:12:13.071Z,3.37
2018-09-16T04:14:41.490Z,3.53
2018-09-16T04:17:09.878Z,4.90
2018-09-16T04:19:38.292Z,7.03
2018-09-16T04:22:06.512Z,5.07
2018-09-16T04:24:34.773Z,3.80
2018-09-16T04:27:03.167Z,3.37
2018-09-16T04:29:31.439Z,3.73
2018-09-16T04:31:59.781Z,3.77
2018-09-16T04:34:28.045Z,3.83
2018-09-16T04:36:56.383Z,3.27
2018-09-16T04:39:24.715Z,4.40
2018-09-16T04:41:59.796Z,3.50
2018-09-16T04:44:28.205Z,3.73
2018-09-16T04:46:56.485Z,3.73
2018-09-16T04:49:26.452Z,3.60
2018-09-16T04:51:54.836Z,4.80
2018-09-16T04:54:23.127Z,4.40
2018-09-16T04:56:51.367Z,4.00
2018-09-16T04:59:19.797Z,4.27
2018-09-16T05:01:48.407Z,6.10
2018-09-16T05:04:16.821Z,5.13
2018-09-16T05:06:45.282Z,5.30
2018-09-16T05:09:13.621Z,5.37
2018-09-16T05:11:42.039Z,5.20
2018-09-16T05:14:10.482Z,3.83
2018-09-16T05:16:38.843Z,4.20
2018-09-16T05:19:07.127Z,5.23
2018-09-16T05:21:35.448Z,3.93
2018-09-16T05:24:04.234Z,4.67
2018-09-16T05:26:32.433Z,5.13
2018-09-16T05:29:00.861Z,6.90
2018-09-16T05:31:30.350Z,4.63
2018-09-16T05:33:58.703Z,6.33
2018-09-16T05:36:27.150Z,4.00
2018-09-16T05:38:55.689Z,4.67
2018-09-16T05:41:24.321Z,5.93
2018-09-16T05:43:52.699Z,4.00
2018-09-16T05:46:21.691Z,4.43
2018-09-16T05:48:50.776Z,5.20
2018-09-16T05:51:19.336Z,4.30
2018-09-16T05:53:47.704Z,6.53
2018-09-16T05:56:17.248Z,5.27
2018-09-16T05:58:45.608Z,4.90
2018-09-16T06:01:14.179Z,5.27
2018-09-16T06:03:49.333Z,5.03
2018-09-16T06:06:17.819Z,5.00
2018-09-16T06:08:46.202Z,4.60
2018-09-16T06:11:14.562Z,7.07
2018-09-16T06:13:42.880Z,8.47
2018-09-16T06:16:11.924Z,4.23
2018-09-16T06:18:40.286Z,5.67
2018-09-16T06:21:08.671Z,4.47
2018-09-16T06:23:36.972Z,6.97
2018-09-16T06:26:05.357Z,7.07
2018-09-16T06:28:33.665Z,10.33
2018-09-16T06:31:03.642Z,7.37
2018-09-16T06:33:31.959Z,6.57
2018-09-16T06:36:00.232Z,5.63
2018-09-16T06:38:29.095Z,6.47
2018-09-16T06:40:57.510Z,6.63
2018-09-16T06:43:25.848Z,10.40
2018-09-16T06:45:54.224Z,7.10
2018-09-16T06:48:22.500Z,7.23
2018-09-16T06:50:50.822Z,8.00
2018-09-16T06:53:19.215Z,7.77
2018-09-16T06:55:47.721Z,5.20
2018-09-16T06:58:16.426Z,5.60
2018-09-16T07:00:44.976Z,5.27
2018-09-16T07:03:13.401Z,7.70
2018-09-16T07:05:41.803Z,11.40
2018-09-16T07:08:10.261Z,7.50
2018-09-16T07:10:38.936Z,5.10
2018-09-16T07:13:07.320Z,4.77
2018-09-16T07:15:36.387Z,4.67
2018-09-16T07:18:04.807Z,10.30
2018-09-16T07:20:33.241Z,7.90
2018-09-16T07:23:02.331Z,5.87
2018-09-16T07:25:30.746Z,5.30
2018-09-16T07:27:59.136Z,4.60
2018-09-16T07:30:27.712Z,4.50
2018-09-16T07:32:56.627Z,5.50
2018-09-16T07:35:24.908Z,23.67
2018-09-16T07:37:53.331Z,22.97
2018-09-16T07:40:22.386Z,12.93
2018-09-16T07:42:50.862Z,9.40
2018-09-16T07:45:19.459Z,5.90
2018-09-16T07:47:48.033Z,5.90
2018-09-16T07:50:16.417Z,7.00
2018-09-16T07:52:46.357Z,9.77
2018-09-16T07:55:15.087Z,8.70
2018-09-16T07:57:43.576Z,7.30
2018-09-16T08:00:12.149Z,8.90
2018-09-16T08:02:40.606Z,8.00
2018-09-16T08:05:09.242Z,6.13
2018-09-16T08:07:38.164Z,7.77
2018-09-16T08:10:06.800Z,5.37
2018-09-16T08:12:35.533Z,8.00
2018-09-16T08:15:04.116Z,54.20
2018-09-16T08:17:40.605Z,99.67
2018-09-16T08:20:08.983Z,79.67
2018-09-16T08:22:37.462Z,51.20
2018-09-16T08:25:05.963Z,23.20
2018-09-16T08:27:34.453Z,14.13
2018-09-16T08:30:03.217Z,11.80
2018-09-16T08:32:38.405Z,9.83
2018-09-16T08:35:07.738Z,10.20
2018-09-16T08:37:36.311Z,9.60
2018-09-16T08:40:04.651Z,8.03
2018-09-16T08:42:32.932Z,7.70
2018-09-16T08:45:01.477Z,8.17
2018-09-16T08:47:29.941Z,8.60
2018-09-16T08:49:58.524Z,6.23
2018-09-16T08:52:28.132Z,8.30
2018-09-16T08:54:59.171Z,9.43
2018-09-16T08:57:28.281Z,9.67
2018-09-16T08:59:59.789Z,9.53
2018-09-16T09:02:29.240Z,5.90
2018-09-16T09:04:57.718Z,7.57
2018-09-16T09:07:28.086Z,8.20
2018-09-16T09:09:58.785Z,4.53
2018-09-16T09:12:27.577Z,6.43
2018-09-16T09:14:55.989Z,5.87
2018-09-16T09:17:24.394Z,5.00
2018-09-16T09:19:53.546Z,4.87
2018-09-16T09:22:22.143Z,3.87
2018-09-16T09:24:50.800Z,4.83
2018-09-16T09:27:19.633Z,4.57
2018-09-16T09:29:52.916Z,10.93
2018-09-16T09:32:22.035Z,7.67
2018-09-16T09:34:50.805Z,6.10
2018-09-16T09:37:19.597Z,4.80
2018-09-16T09:39:47.944Z,4.23
2018-09-16T09:42:17.143Z,3.87
2018-09-16T09:44:45.800Z,3.23
2018-09-16T09:47:14.687Z,4.53
2018-09-16T09:49:43.836Z,3.87
2018-09-16T09:52:12.229Z,7.43
2018-09-16T09:54:41.295Z,4.87
2018-09-16T09:57:10.481Z,4.23
2018-09-16T09:59:39.233Z,7.73
2018-09-16T10:02:07.661Z,6.47
2018-09-16T10:04:36.175Z,3.40
2018-09-16T10:07:05.404Z,4.47
2018-09-16T10:09:34.078Z,6.90
2018-09-16T10:12:10.771Z,3.63
2018-09-16T10:14:40.202Z,4.53
2018-09-16T10:17:09.627Z,3.70
2018-09-16T10:19:38.109Z,5.33
2018-09-16T10:22:07.719Z,6.03
2018-09-16T10:27:11.610Z,3.17
2018-09-16T10:29:40.627Z,5.27
2018-09-16T10:32:09.285Z,2.70
2018-09-16T10:34:41.619Z,3.97
2018-09-16T10:37:13.383Z,5.67
2018-09-16T10:39:42.406Z,4.43
2018-09-16T10:42:11.249Z,2.77
2018-09-16T10:44:41.080Z,4.90
2018-09-16T10:47:12.347Z,3.23
2018-09-16T10:49:40.679Z,3.43
2018-09-16T10:52:08.985Z,4.00
2018-09-16T10:54:37.491Z,4.17
2018-09-16T10:57:06.479Z,3.27
2018-09-16T10:59:35.206Z,3.93
2018-09-16T11:02:03.770Z,6.53
2018-09-16T11:04:50.619Z,7.97
2018-09-16T11:07:19.977Z,4.50
2018-09-16T11:09:49.459Z,4.20
2018-09-16T11:12:18.396Z,4.67
2018-09-16T11:14:55.622Z,4.73
2018-09-16T11:17:24.660Z,3.00
2018-09-16T11:19:53.234Z,5.53
2018-09-16T11:22:22.197Z,3.27
2018-09-16T11:24:51.140Z,2.80
2018-09-16T11:27:19.650Z,5.17
2018-09-16T11:29:48.193Z,2.83
2018-09-16T11:32:16.941Z,5.23
2018-09-16T11:34:45.935Z,3.70
2018-09-16T11:37:14.502Z,6.10
2018-09-16T11:39:45.956Z,3.50
2018-09-16T11:42:14.971Z,3.63
2018-09-16T11:45:07.365Z,3.93
2018-09-16T11:47:37.289Z,4.37
2018-09-16T11:50:06.168Z,6.23
2018-09-16T11:52:35.826Z,4.50
2018-09-16T11:55:04.654Z,4.27
2018-09-16T11:57:32.975Z,4.43
2018-09-16T12:00:01.608Z,3.20
2018-09-16T12:02:30.700Z,3.20
2018-09-16T12:04:59.245Z,2.87
2018-09-16T12:07:30.405Z,2.97
2018-09-16T12:09:58.975Z,4.63
2018-09-16T12:12:27.611Z,4.03
2018-09-16T12:14:57.247Z,3.20
2018-09-16T12:17:25.754Z,5.57
2018-09-16T12:19:54.504Z,3.13
2018-09-16T12:22:23.145Z,2.97
2018-09-16T12:24:51.462Z,6.17
2018-09-16T12:27:20.755Z,5.40
2018-09-16T12:29:49.230Z,4.60
2018-09-16T12:32:17.560Z,2.60
2018-09-16T12:34:46.076Z,3.40
2018-09-16T12:37:15.103Z,4.47
2018-09-16T12:39:43.480Z,4.97
2018-09-16T12:42:12.346Z,5.10
2018-09-16T12:44:40.737Z,3.53
2018-09-16T12:47:09.048Z,4.67
2018-09-16T12:49:37.605Z,4.13
2018-09-16T12:52:06.187Z,3.97
2018-09-16T12:54:34.682Z,4.40
2018-09-16T12:57:03.355Z,3.73
2018-09-16T12:59:31.773Z,3.73
2018-09-16T13:02:00.434Z,4.17
2018-09-16T13:04:29.737Z,4.40
2018-09-16T13:06:58.081Z,3.10
2018-09-16T13:09:27.003Z,3.63
2018-09-16T13:11:55.875Z,6.03
2018-09-16T13:14:24.373Z,2.93
2018-09-16T13:16:55.778Z,6.10
2018-09-16T13:19:26.343Z,3.73
2018-09-16T13:21:55.379Z,3.43
2018-09-16T13:24:24.298Z,3.30
2018-09-16T13:26:52.951Z,3.07
2018-09-16T13:29:21.530Z,3.57
2018-09-16T13:31:50.093Z,2.70
2018-09-16T13:34:18.847Z,4.30
2018-09-16T13:36:48.476Z,4.77
2018-09-16T13:39:34.734Z,4.03
2018-09-16T13:42:07.250Z,5.63
2018-09-16T13:44:36.495Z,4.70
2018-09-16T13:47:05.351Z,6.03
2018-09-16T13:49:33.629Z,3.53
2018-09-16T13:52:02.115Z,4.27
2018-09-16T13:54:30.730Z,5.27
2018-09-16T13:56:59.061Z,4.33
2018-09-16T13:59:27.494Z,3.10
2018-09-16T14:01:56.122Z,4.77
2018-09-16T14:04:24.528Z,2.70
2018-09-16T14:06:53.038Z,3.07
2018-09-16T14:09:21.583Z,8.53
2018-09-16T14:11:50.004Z,4.63
2018-09-16T14:14:18.324Z,4.73
2018-09-16T14:16:46.972Z,4.93
2018-09-16T14:19:15.301Z,2.90
2018-09-16T14:21:44.318Z,2.53
2018-09-16T14:24:12.964Z,2.80
2018-09-16T14:26:41.270Z,3.70
2018-09-16T14:29:09.603Z,3.10
2018-09-16T14:31:37.944Z,4.37
2018-09-16T14:34:06.480Z,4.10
2018-09-16T14:36:35.462Z,2.67
2018-09-16T14:39:05.071Z,3.00
2018-09-16T14:41:33.409Z,3.93
2018-09-16T14:44:01.880Z,6.67
2018-09-16T14:46:30.397Z,6.57
2018-09-16T14:48:58.967Z,8.43
2018-09-16T14:51:27.669Z,4.77
2018-09-16T14:53:56.063Z,6.90
2018-09-16T14:56:24.731Z,6.60
2018-09-16T14:58:53.165Z,7.40
2018-09-16T15:01:21.743Z,3.10
2018-09-16T15:03:51.031Z,3.97
2018-09-16T15:06:19.614Z,3.10
2018-09-16T15:08:48.335Z,4.77
2018-09-16T15:11:16.945Z,3.40
2018-09-16T15:13:45.403Z,3.93
2018-09-16T15:16:14.075Z,4.93
2018-09-16T15:18:42.530Z,6.33
2018-09-16T15:21:12.021Z,4.80
2018-09-16T15:23:40.956Z,4.80
2018-09-16T15:26:09.449Z,8.77
2018-09-16T15:28:38.076Z,3.77
2018-09-16T15:31:06.981Z,4.63
2018-09-16T15:33:35.683Z,3.97
2018-09-16T15:36:04.374Z,4.13
2018-09-16T15:38:32.761Z,4.33
2018-09-16T15:41:01.195Z,3.50
2018-09-16T15:43:29.821Z,4.33
2018-09-16T15:45:58.603Z,4.37
2018-09-16T15:48:27.498Z,5.37
2018-09-16T15:50:55.975Z,3.57
2018-09-16T15:53:24.366Z,4.13
2018-09-16T15:55:52.835Z,4.77
2018-09-16T15:58:21.290Z,3.93
2018-09-16T16:00:49.646Z,2.67
2018-09-16T16:03:18.253Z,3.30
2018-09-16T16:05:46.896Z,2.93
2018-09-16T16:08:15.752Z,3.93
2018-09-16T16:10:44.616Z,3.00
2018-09-16T16:13:13.195Z,3.97
2018-09-16T16:15:41.905Z,3.80
2018-09-16T16:18:10.527Z,3.57
2018-09-16T16:20:39.015Z,3.73
2018-09-16T16:23:07.410Z,7.07
2018-09-16T16:25:35.895Z,5.10
2018-09-16T16:28:04.219Z,4.47
2018-09-16T16:30:32.641Z,5.30
2018-09-16T16:33:01.185Z,5.00
2018-09-16T16:35:30.472Z,5.80
2018-09-16T16:37:58.988Z,5.03
2018-09-16T16:40:27.968Z,6.93
2018-09-16T16:43:00.426Z,5.63
2018-09-16T16:45:29.170Z,6.60
2018-09-16T16:47:57.611Z,5.87
2018-09-16T16:50:25.934Z,5.10
2018-09-16T16:52:54.981Z,4.97
2018-09-16T16:55:23.368Z,6.93
2018-09-16T16:57:55.466Z,12.63
2018-09-16T17:00:24.742Z,6.13
2018-09-16T17:02:54.094Z,4.70
2018-09-16T17:05:22.956Z,5.73
2018-09-16T17:07:54.599Z,4.53
2018-09-16T17:10:23.889Z,6.70
2018-09-16T17:12:52.942Z,7.23
2018-09-16T17:15:21.823Z,5.13
2018-09-16T17:17:50.894Z,5.33
2018-09-16T17:20:19.440Z,56.50
2018-09-16T17:22:47.821Z,27.37
2018-09-16T17:25:17.965Z,15.37
2018-09-16T17:27:47.006Z,12.80
2018-09-16T17:30:16.043Z,13.90
2018-09-16T17:32:44.590Z,12.67
2018-09-16T17:35:13.051Z,11.50
2018-09-16T17:37:41.822Z,12.87
2018-09-16T17:40:11.481Z,12.53
2018-09-16T17:42:40.600Z,13.13
2018-09-16T17:45:09.040Z,14.07
2018-09-16T17:47:37.819Z,11.33
2018-09-16T17:50:09.471Z,10.63
2018-09-16T17:52:38.134Z,12.90
2018-09-16T17:55:06.810Z,14.20
2018-09-16T17:57:35.775Z,12.57
2018-09-16T18:00:26.501Z,10.97
2018-09-16T18:02:56.443Z,10.60
2018-09-16T18:05:25.586Z,8.67
2018-09-16T18:07:54.826Z,10.37
2018-09-16T18:10:35.648Z,10.40
2018-09-16T18:13:04.084Z,9.40
2018-09-16T18:15:32.589Z,11.17
2018-09-16T18:18:02.066Z,9.03
2018-09-16T18:20:30.777Z,8.13
2018-09-16T18:22:59.535Z,9.13
2018-09-16T18:25:29.274Z,9.03
2018-09-16T18:27:57.878Z,10.83
2018-09-16T18:30:26.621Z,16.03
2018-09-16T18:32:55.198Z,13.17
2018-09-16T18:35:24.180Z,17.73
2018-09-16T18:37:52.549Z,18.20
2018-09-16T18:40:21.275Z,26.27
2018-09-16T18:42:50.146Z,25.97
2018-09-16T18:45:18.693Z,24.93
2018-09-16T18:47:47.422Z,22.40
2018-09-16T18:50:16.123Z,18.80
2018-09-16T18:52:44.856Z,15.33
2018-09-16T18:55:13.589Z,14.20
2018-09-16T18:57:42.313Z,14.33
2018-09-16T19:00:11.304Z,14.90
2018-09-16T19:02:40.158Z,15.70
2018-09-16T19:05:09.071Z,35.70
2018-09-16T19:07:37.903Z,37.27
2018-09-16T19:10:06.491Z,34.67
2018-09-16T19:12:35.109Z,31.60
2018-09-16T19:15:04.428Z,25.17
2018-09-16T19:17:33.151Z,27.50
2018-09-16T19:20:01.861Z,19.77
2018-09-16T19:22:30.921Z,18.17
2018-09-16T19:24:59.937Z,16.30
2018-09-16T19:27:30.075Z,18.13
2018-09-16T19:29:59.466Z,16.10
2018-09-16T19:32:27.997Z,15.33
2018-09-16T19:34:56.641Z,155.07
2018-09-16T19:37:26.493Z,77.67
2018-09-16T19:39:55.151Z,33.40
2018-09-16T19:42:23.781Z,25.27
2018-09-16T19:44:52.240Z,18.37
2018-09-16T19:47:20.856Z,22.63
2018-09-16T19:49:49.472Z,21.17
2018-09-16T19:52:17.886Z,19.03
2018-09-16T19:54:46.429Z,23.90
2018-09-16T19:57:15.081Z,21.30
2018-09-16T19:59:43.613Z,13.43
2018-09-16T20:02:12.214Z,11.03
2018-09-16T20:04:41.037Z,19.50
2018-09-16T20:07:09.994Z,29.07
2018-09-16T20:09:38.939Z,25.43
2018-09-16T20:12:07.410Z,29.53
2018-09-16T20:14:36.403Z,19.40
2018-09-16T20:17:04.991Z,13.50
2018-09-16T20:19:33.666Z,11.20
2018-09-16T20:22:04.205Z,10.30
2018-09-16T20:24:32.585Z,18.70
2018-09-16T20:27:01.663Z,18.03
2018-09-16T20:29:30.525Z,15.00
2018-09-16T20:31:58.955Z,10.50
2018-09-16T20:34:27.619Z,10.17
2018-09-16T20:36:56.213Z,10.33
2018-09-16T20:39:25.382Z,8.97
2018-09-16T20:41:53.864Z,11.70
2018-09-16T20:44:22.359Z,9.53
2018-09-16T20:46:50.827Z,11.47
2018-09-16T20:49:19.361Z,13.53
2018-09-16T20:51:47.905Z,11.03
2018-09-16T20:54:16.367Z,9.57
2018-09-16T20:56:44.748Z,11.20
2018-09-16T20:59:13.231Z,8.20
2018-09-16T21:01:42.986Z,7.93
2018-09-16T21:04:11.627Z,9.40
2018-09-16T21:06:40.001Z,10.80
2018-09-16T21:09:10.474Z,18.13
2018-09-16T21:11:38.935Z,20.10
2018-09-16T21:14:07.268Z,16.07
2018-09-16T21:16:35.607Z,10.73
2018-09-16T21:19:04.544Z,9.03
2018-09-16T21:21:32.909Z,9.30
2018-09-16T21:24:01.819Z,7.67
2018-09-16T21:26:31.031Z,9.00
2018-09-16T21:28:59.430Z,7.63
2018-09-16T21:31:27.873Z,10.03
2018-09-16T21:33:56.197Z,8.27
2018-09-16T21:36:26.101Z,10.80
2018-09-16T21:38:55.000Z,8.83
2018-09-16T21:41:23.558Z,8.17
2018-09-16T21:43:51.770Z,25.73
2018-09-16T21:46:20.694Z,27.37
2018-09-16T21:48:48.987Z,13.07
2018-09-16T21:51:17.660Z,11.53
2018-09-16T21:53:45.943Z,7.80
2018-09-16T21:56:14.568Z,8.83
2018-09-16T21:58:43.209Z,9.43
2018-09-16T22:01:11.992Z,10.93
2018-09-16T22:03:40.308Z,93.37
2018-09-16T22:06:08.656Z,70.60
2018-09-16T22:08:38.063Z,32.97
2018-09-16T22:11:06.633Z,14.83
2018-09-16T22:13:34.898Z,10.43
2018-09-16T22:16:03.201Z,9.90
2018-09-16T22:18:31.610Z,8.13
2018-09-16T22:21:00.092Z,7.83
2018-09-16T22:23:28.469Z,7.07
2018-09-16T22:25:56.748Z,6.73
2018-09-16T22:28:25.346Z,6.70
2018-09-16T22:30:53.611Z,6.40
2018-09-16T22:33:21.840Z,6.77
2018-09-16T22:35:50.154Z,8.00
2018-09-16T22:38:18.506Z,6.57
2018-09-16T22:40:46.833Z,7.10
2018-09-16T22:43:15.156Z,6.07
2018-09-16T22:45:44.078Z,5.97
2018-09-16T22:48:12.293Z,7.77
2018-09-16T22:50:40.539Z,6.37
2018-09-16T22:53:15.375Z,6.30
2018-09-16T22:55:43.663Z,8.43
2018-09-16T22:58:11.896Z,9.97
2018-09-16T23:00:40.150Z,7.23
2018-09-16T23:03:08.416Z,9.47
2018-09-16T23:05:36.731Z,7.27
2018-09-16T23:08:05.023Z,6.53
2018-09-16T23:10:33.310Z,7.70
2018-09-16T23:13:01.592Z,7.67
2018-09-16T23:15:29.927Z,8.13
2018-09-16T23:17:58.241Z,10.00
2018-09-16T23:20:26.478Z,6.97
2018-09-16T23:22:55.261Z,6.83
2018-09-16T23:25:23.603Z,86.30
2018-09-16T23:27:51.787Z,43.30
2018-09-16T23:30:20.058Z,10.87
2018-09-16T23:32:48.354Z,9.87
2018-09-16T23:35:16.608Z,7.97
2018-09-16T23:37:45.205Z,7.93
2018-09-16T23:40:13.547Z,7.20
2018-09-16T23:42:42.251Z,7.23
2018-09-16T23:45:10.552Z,7.10
2018-09-16T23:47:38.849Z,7.83
2018-09-16T23:50:07.271Z,6.33
2018-09-16T23:52:35.646Z,5.70
2018-09-16T23:55:03.986Z,5.50
2018-09-16T23:57:32.375Z,6.00
